Time;durP1;ratioP1;P1;durP2;ratioP2;P2;SDS_P1;SDS_P2;PMS_P1;PMS_P2;Temp;Humidity;BMP_temperature;BMP_pressure;BME280_temperature;BME280_humidity;BME280_pressure;Samples;Min_cycle;Max_cycle;Signal;HPM_P1;HPM_P2
2022/08/13 00:02:16;;;;;;;2.10;1.60;;;;;;;;;;6229964;28;20132;-79
2022/08/13 00:05:23;;;;;;;2.50;1.80;;;;;;;;;;6230698;28;20045;-79
2022/08/13 00:08:48;;;;;;;2.88;1.88;;;;;;;;;;6227272;28;20046;-81
2022/08/13 00:15:28;;;;;;;4.63;2.42;;;;;;;;;;6227419;28;20077;-80
2022/08/13 00:18:30;;;;;;;4.90;2.35;;;;;;;;;;6214656;28;20476;-79
2022/08/13 00:21:32;;;;;;;5.47;2.45;;;;;;;;;;6224028;28;20271;-80
2022/08/13 00:24:55;;;;;;;2.60;2.30;;;;;;;;;;6226918;28;20501;-81
2022/08/13 00:27:58;;;;;;;4.88;2.35;;;;;;;;;;6211354;28;20046;-80
2022/08/13 00:31:05;;;;;;;2.92;2.30;;;;;;;;;;6210183;28;20042;-79
2022/08/13 00:34:10;;;;;;;3.22;2.17;;;;;;;;;;6214521;28;20303;-79
2022/08/13 00:37:13;;;;;;;6.55;2.40;;;;;;;;;;6228408;28;20041;-79
2022/08/13 00:40:17;;;;;;;4.63;2.10;;;;;;;;;;6231563;28;20690;-81
2022/08/13 00:43:33;;;;;;;2.92;1.90;;;;;;;;;;6217432;28;20061;-80
2022/08/13 00:46:37;;;;;;;3.22;2.00;;;;;;;;;;6211479;28;20092;-79
2022/08/13 00:49:39;;;;;;;4.15;2.17;;;;;;;;;;6230271;28;20045;-79
2022/08/13 00:53:02;;;;;;;3.40;2.03;;;;;;;;;;6226207;28;20060;-80
2022/08/13 00:56:05;;;;;;;2.40;2.10;;;;;;;;;;6230712;28;20136;-80
2022/08/13 00:59:14;;;;;;;2.97;2.15;;;;;;;;;;6214294;28;20042;-79
2022/08/13 01:02:16;;;;;;;6.25;2.58;;;;;;;;;;6231558;28;20046;-79
2022/08/13 01:05:23;;;;;;;3.70;2.00;;;;;;;;;;6213164;28;20046;-79
2022/08/13 01:09:28;;;;;;;2.55;2.30;;;;;;;;;;6206262;28;20092;-80
2022/08/13 01:12:51;;;;;;;2.17;1.98;;;;;;;;;;6208485;28;20053;-80
2022/08/13 01:15:52;;;;;;;2.85;2.20;;;;;;;;;;6216145;28;20073;-81
2022/08/13 01:18:56;;;;;;;2.38;2.17;;;;;;;;;;6226350;28;20038;-81
2022/08/13 01:22:00;;;;;;;2.55;2.10;;;;;;;;;;6229342;28;20137;-81
2022/08/13 01:25:05;;;;;;;2.80;2.42;;;;;;;;;;6229280;28;20053;-79
2022/08/13 01:28:08;;;;;;;2.50;2.30;;;;;;;;;;6214626;28;20067;-80
2022/08/13 01:31:12;;;;;;;3.30;2.30;;;;;;;;;;6222673;28;20057;-80
2022/08/13 01:34:20;;;;;;;2.97;2.10;;;;;;;;;;6212653;28;20050;-82
2022/08/13 01:37:26;;;;;;;3.30;2.10;;;;;;;;;;6205826;28;20054;-81
2022/08/13 01:40:29;;;;;;;2.92;2.40;;;;;;;;;;6223131;28;20056;-81
2022/08/13 01:43:34;;;;;;;2.40;2.20;;;;;;;;;;6215267;28;20050;-85
2022/08/13 01:53:20;;;;;;;3.53;2.17;;;;;;;;;;6217944;28;20578;-84
2022/08/13 01:56:24;;;;;;;3.65;2.50;;;;;;;;;;6220594;28;20351;-83
2022/08/13 01:59:26;;;;;;;2.45;2.25;;;;;;;;;;6237110;28;20049;-85
2022/08/13 02:02:48;;;;;;;2.88;2.35;;;;;;;;;;6237777;28;22937;-84
2022/08/13 02:05:51;;;;;;;4.80;2.20;;;;;;;;;;6244213;28;20092;-87
2022/08/13 02:09:13;;;;;;;3.00;2.38;;;;;;;;;;6221926;28;20046;-82
2022/08/13 02:12:36;;;;;;;3.72;2.53;;;;;;;;;;6231780;28;20766;-84
2022/08/13 02:15:41;;;;;;;2.65;2.10;;;;;;;;;;6216528;28;20505;-84
2022/08/13 02:18:44;;;;;;;2.83;2.63;;;;;;;;;;6224847;28;20042;-85
2022/08/13 02:21:46;;;;;;;3.20;2.90;;;;;;;;;;6209481;28;20077;-84
2022/08/13 02:24:56;;;;;;;3.10;2.53;;;;;;;;;;6224998;28;20072;-84
2022/08/13 02:27:58;;;;;;;2.33;2.10;;;;;;;;;;6230599;28;20037;-83
2022/08/13 02:31:00;;;;;;;2.75;2.55;;;;;;;;;;6233382;28;20041;-85
2022/08/13 02:34:03;;;;;;;3.05;2.28;;;;;;;;;;6216936;28;20100;-85
2022/08/13 02:37:11;;;;;;;2.85;2.55;;;;;;;;;;6233866;28;20042;-83
2022/08/13 02:43:53;;;;;;;3.47;2.70;;;;;;;;;;6215907;28;19926;-83
2022/08/13 02:47:01;;;;;;;3.55;2.80;;;;;;;;;;6228515;28;20052;-82
2022/08/13 02:50:03;;;;;;;3.00;2.70;;;;;;;;;;6216777;28;20050;-87
2022/08/13 02:53:04;;;;;;;2.60;2.40;;;;;;;;;;6218767;28;20089;-82
2022/08/13 02:56:29;;;;;;;3.80;2.53;;;;;;;;;;6226630;28;20060;-81
2022/08/13 02:59:31;;;;;;;2.85;2.50;;;;;;;;;;6216618;28;20053;-84
2022/08/13 03:02:53;;;;;;;2.65;2.45;;;;;;;;;;6217385;28;20083;-86
2022/08/13 03:05:55;;;;;;;3.47;2.40;;;;;;;;;;6218518;28;20125;-81
2022/08/13 03:09:04;;;;;;;3.72;2.58;;;;;;;;;;6215951;28;20970;-86
2022/08/13 03:12:09;;;;;;;2.53;2.33;;;;;;;;;;6217424;28;20053;-84
2022/08/13 03:15:13;;;;;;;4.57;2.50;;;;;;;;;;6214277;28;20129;-84
2022/08/13 03:18:15;;;;;;;3.33;2.40;;;;;;;;;;6228052;28;20038;-82
2022/08/13 03:21:18;;;;;;;2.92;2.63;;;;;;;;;;6215880;28;20060;-81
2022/08/13 03:24:40;;;;;;;2.80;2.60;;;;;;;;;;6212448;28;20420;-82
2022/08/13 03:27:42;;;;;;;3.10;2.88;;;;;;;;;;6227326;28;20120;-82
2022/08/13 03:30:51;;;;;;;3.03;2.60;;;;;;;;;;6233036;28;20124;-86
2022/08/13 03:34:01;;;;;;;3.28;2.60;;;;;;;;;;6211122;28;20038;-82
2022/08/13 03:37:05;;;;;;;3.17;2.88;;;;;;;;;;6227824;28;20096;-82
2022/08/13 03:40:08;;;;;;;4.60;2.70;;;;;;;;;;6216637;28;20080;-82
2022/08/13 03:43:09;;;;;;;3.77;2.67;;;;;;;;;;6230264;28;20112;-82
2022/08/13 03:46:19;;;;;;;3.10;2.90;;;;;;;;;;6228153;28;20436;-81
2022/08/13 03:49:21;;;;;;;3.88;2.78;;;;;;;;;;6231756;28;20057;-80
2022/08/13 03:52:30;;;;;;;3.42;2.67;;;;;;;;;;6212677;28;20448;-78
2022/08/13 03:55:39;;;;;;;3.50;3.20;;;;;;;;;;6209714;28;20049;-78
2022/08/13 03:58:46;;;;;;;4.75;2.60;;;;;;;;;;6230849;28;20038;-80
2022/08/13 04:01:51;;;;;;;4.35;3.00;;;;;;;;;;6207643;28;20056;-80
2022/08/13 04:04:58;;;;;;;3.80;2.70;;;;;;;;;;6217007;28;20064;-81
2022/08/13 04:07:59;;;;;;;5.10;2.85;;;;;;;;;;6219081;28;20097;-80
2022/08/13 04:11:04;;;;;;;3.85;3.35;;;;;;;;;;6218351;28;20626;-80
2022/08/13 04:14:10;;;;;;;6.93;3.70;;;;;;;;;;6220394;28;20046;-80
2022/08/13 04:17:36;;;;;;;4.60;3.63;;;;;;;;;;6215178;28;20046;-83
2022/08/13 04:20:40;;;;;;;4.28;3.88;;;;;;;;;;6216973;28;20050;-80
2022/08/13 04:23:46;;;;;;;4.03;3.25;;;;;;;;;;6225696;28;20104;-81
2022/08/13 04:26:48;;;;;;;3.78;3.10;;;;;;;;;;6224212;28;20128;-82
2022/08/13 04:29:56;;;;;;;3.28;2.97;;;;;;;;;;6233603;28;20046;-83
2022/08/13 04:32:59;;;;;;;3.90;3.20;;;;;;;;;;6219686;28;20172;-83
2022/08/13 04:36:21;;;;;;;3.20;2.90;;;;;;;;;;6230919;28;20113;-79
2022/08/13 04:39:28;;;;;;;4.85;3.10;;;;;;;;;;6233168;28;20046;-79
2022/08/13 04:42:53;;;;;;;3.70;3.40;;;;;;;;;;6219683;28;20068;-81
2022/08/13 04:45:59;;;;;;;3.50;3.20;;;;;;;;;;6219778;28;20053;-83
2022/08/13 04:49:01;;;;;;;5.50;3.30;;;;;;;;;;6220097;28;20727;-81
2022/08/13 04:52:05;;;;;;;3.20;2.90;;;;;;;;;;6233225;28;20038;-81
2022/08/13 04:55:11;;;;;;;3.75;3.33;;;;;;;;;;6220840;28;20125;-80
2022/08/13 04:58:14;;;;;;;3.40;3.10;;;;;;;;;;6222231;28;20073;-83
2022/08/13 05:01:17;;;;;;;;;;;;;;;;;;6215749;28;20061;-82
2022/08/13 05:04:38;;;;;;;5.43;3.60;;;;;;;;;;6223296;28;19933;-82
2022/08/13 05:07:53;;;;;;;6.00;3.53;;;;;;;;;;6219913;28;20081;-82
2022/08/13 05:10:55;;;;;;;3.60;3.25;;;;;;;;;;6221147;28;20057;-83
2022/08/13 05:14:00;;;;;;;3.30;3.00;;;;;;;;;;6219582;28;20046;-81
2022/08/13 05:17:10;;;;;;;3.80;3.20;;;;;;;;;;6216575;28;20501;-79
2022/08/13 05:20:15;;;;;;;4.43;3.40;;;;;;;;;;6217618;28;20395;-78
2022/08/13 05:23:39;;;;;;;3.92;3.55;;;;;;;;;;6215801;28;20057;-80
2022/08/13 05:27:01;;;;;;;7.30;3.42;;;;;;;;;;6221710;28;20048;-81
2022/08/13 05:30:12;;;;;;;4.13;3.72;;;;;;;;;;6231027;28;20046;-82
2022/08/13 05:33:34;;;;;;;4.10;3.25;;;;;;;;;;6213013;28;20459;-75
2022/08/13 05:36:55;;;;;;;3.55;3.17;;;;;;;;;;6209575;28;20069;-76
2022/08/13 05:40:17;;;;;;;3.42;3.13;;;;;;;;;;6199111;28;20155;-76
2022/08/13 05:43:37;;;;;;;4.13;3.20;;;;;;;;;;6205496;28;20049;-75
2022/08/13 05:46:40;;;;;;;4.03;3.22;;;;;;;;;;6222630;28;20041;-76
2022/08/13 05:49:43;;;;;;;3.78;3.30;;;;;;;;;;6209815;28;20049;-76
2022/08/13 05:53:10;;;;;;;5.10;3.55;;;;;;;;;;6222310;28;20428;-75
2022/08/13 05:56:11;;;;;;;3.60;3.30;;;;;;;;;;6210022;28;20038;-75
2022/08/13 06:06:16;;;;;;;4.30;3.50;;;;;;;;;;6209206;28;20124;-76
2022/08/13 06:09:25;;;;;;;4.50;3.38;;;;;;;;;;6208302;28;20103;-75
2022/08/13 06:12:33;;;;;;;3.53;3.22;;;;;;;;;;6205519;28;20073;-75
2022/08/13 06:15:43;;;;;;;4.28;3.80;;;;;;;;;;6209000;28;20668;-78
2022/08/13 06:19:05;;;;;;;5.95;3.50;;;;;;;;;;6232286;28;20520;-82
2022/08/13 06:22:11;;;;;;;3.95;3.63;;;;;;;;;;6232616;28;20134;-81
2022/08/13 06:25:15;;;;;;;6.47;3.85;;;;;;;;;;6239465;28;20042;-80
2022/08/13 06:28:20;;;;;;;15.77;4.35;;;;;;;;;;6215052;28;20053;-81
2022/08/13 06:31:28;;;;;;;3.95;3.38;;;;;;;;;;6216410;28;20053;-85
2022/08/13 06:34:34;;;;;;;7.43;4.65;;;;;;;;;;6215629;28;20042;-80
2022/08/13 06:37:41;;;;;;;3.67;3.13;;;;;;;;;;6229370;28;20042;-82
2022/08/13 06:40:52;;;;;;;5.22;3.47;;;;;;;;;;6206785;28;20046;-82
2022/08/13 06:43:56;;;;;;;7.20;4.72;;;;;;;;;;6209783;28;20046;-82
2022/08/13 06:47:05;;;;;;;4.70;2.85;;;;;;;;;;6225654;28;20053;-78
2022/08/13 06:50:10;;;;;;;;;;;;;;;;;;6231942;28;20084;-84
2022/08/13 06:53:12;;;;;;;4.57;2.80;;;;;;;;;;6213517;28;19928;-81
2022/08/13 06:56:34;;;;;;;6.60;5.18;;;;;;;;;;6210812;28;20058;-83
2022/08/13 06:59:39;;;;;;;4.15;3.75;;;;;;;;;;6215129;28;20096;-79
2022/08/13 07:03:02;;;;;;;3.60;3.13;;;;;;;;;;6225027;28;20509;-80
2022/08/13 07:06:04;;;;;;;4.60;2.88;;;;;;;;;;6211057;28;20537;-82
2022/08/13 07:09:05;;;;;;;4.70;2.90;;;;;;;;;;6230148;28;20176;-82
2022/08/13 07:12:15;;;;;;;6.07;3.15;;;;;;;;;;6214910;28;20042;-82
2022/08/13 07:15:17;;;;;;;4.13;2.63;;;;;;;;;;6213173;28;20059;-81
2022/08/13 07:18:39;;;;;;;3.22;2.92;;;;;;;;;;6211416;28;20450;-81
2022/08/13 07:21:48;;;;;;;11.57;3.00;;;;;;;;;;6226191;28;20042;-83
2022/08/13 07:24:52;;;;;;;6.07;2.80;;;;;;;;;;6225607;28;20042;-83
2022/08/13 07:27:55;;;;;;;6.45;2.45;;;;;;;;;;6210801;28;20070;-81
2022/08/13 07:30:58;;;;;;;6.33;2.90;;;;;;;;;;6208176;28;20056;-82
2022/08/13 07:34:01;;;;;;;;;;;;;;;;;;6215098;28;20053;-83
2022/08/13 07:37:03;;;;;;;2.30;2.10;;;;;;;;;;6191713;28;19931;-83
2022/08/13 07:40:08;;;;;;;3.30;2.33;;;;;;;;;;6230713;28;20042;-82
2022/08/13 07:43:12;;;;;;;3.22;2.30;;;;;;;;;;6218255;28;20112;-81
2022/08/13 07:46:18;;;;;;;3.15;2.10;;;;;;;;;;6219027;28;20042;-77
2022/08/13 07:49:29;;;;;;;10.52;2.60;;;;;;;;;;6219573;28;20058;-76
2022/08/13 07:52:52;;;;;;;2.38;2.17;;;;;;;;;;6234046;28;20698;-77
2022/08/13 07:55:55;;;;;;;2.92;2.10;;;;;;;;;;6216898;28;20045;-77
2022/08/13 07:59:18;;;;;;;;;;;;;;;;;;6216366;28;20409;-76
2022/08/13 08:02:25;;;;;;;2.20;2.00;;;;;;;;;;6212411;28;19921;-77
2022/08/13 08:05:36;;;;;;;12.35;3.33;;;;;;;;;;6213982;28;20046;-76
2022/08/13 08:08:42;;;;;;;2.10;1.90;;;;;;;;;;6225623;28;20076;-76
2022/08/13 08:15:08;;;;;;;15.35;2.97;;;;;;;;;;6212690;28;21045;-76
2022/08/13 08:18:11;;;;;;;2.28;2.08;;;;;;;;;;6214627;28;20142;-76
2022/08/13 08:21:23;;;;;;;4.20;3.80;;;;;;;;;;6220200;28;20045;-75
2022/08/13 08:24:48;;;;;;;6.00;2.65;;;;;;;;;;6211880;28;20046;-76
2022/08/13 08:27:50;;;;;;;2.75;2.05;;;;;;;;;;6210491;28;20148;-74
2022/08/13 08:31:12;;;;;;;1.98;1.88;;;;;;;;;;6210192;28;20060;-76
2022/08/13 08:34:39;;;;;;;2.80;1.67;;;;;;;;;;6211254;28;20125;-74
2022/08/13 08:44:32;;;;;;;3.10;2.05;;;;;;;;;;6208326;28;21082;-75
2022/08/13 08:47:37;;;;;;;6.20;3.10;;;;;;;;;;6210410;28;20054;-76
2022/08/13 08:50:49;;;;;;;4.07;2.42;;;;;;;;;;6215475;28;20050;-76
2022/08/13 08:53:51;;;;;;;2.63;1.88;;;;;;;;;;6197365;28;20073;-77
2022/08/13 08:57:17;;;;;;;2.75;1.80;;;;;;;;;;6204320;28;20050;-77
2022/08/13 09:00:21;;;;;;;6.68;3.22;;;;;;;;;;6217389;28;20430;-76
2022/08/13 09:03:27;;;;;;;1.73;1.63;;;;;;;;;;6209275;28;20042;-76
2022/08/13 09:06:29;;;;;;;2.15;1.83;;;;;;;;;;6224153;28;20045;-76
2022/08/13 09:09:58;;;;;;;2.55;1.70;;;;;;;;;;6208110;28;20052;-76
2022/08/13 09:13:02;;;;;;;1.73;1.63;;;;;;;;;;6210117;28;20412;-76
2022/08/13 09:16:04;;;;;;;3.88;2.10;;;;;;;;;;6204673;28;20050;-77
2022/08/13 09:19:06;;;;;;;;;;;;;;;;;;6210597;28;20733;-76
2022/08/13 09:22:14;;;;;;;2.72;2.15;;;;;;;;;;6210885;28;19929;-75
2022/08/13 09:25:18;;;;;;;2.70;2.05;;;;;;;;;;6210360;28;20820;-75
2022/08/13 09:28:23;;;;;;;;;;;;;;;;;;6210867;28;20046;-75
2022/08/13 09:31:36;;;;;;;4.95;1.85;;;;;;;;;;6209484;28;19929;-76
2022/08/13 09:34:55;;;;;;;2.03;1.90;;;;;;;;;;6200373;28;20042;-76
2022/08/13 09:37:58;;;;;;;1.80;1.70;;;;;;;;;;6209554;28;20034;-78
2022/08/13 09:41:20;;;;;;;1.80;1.70;;;;;;;;;;6207970;28;20046;-76
2022/08/13 09:44:25;;;;;;;2.00;1.73;;;;;;;;;;6208827;28;20053;-76
2022/08/13 09:47:28;;;;;;;1.85;1.70;;;;;;;;;;6208627;28;20188;-76
2022/08/13 09:50:52;;;;;;;1.85;1.75;;;;;;;;;;6208306;28;20054;-76
2022/08/13 09:53:57;;;;;;;6.95;2.03;;;;;;;;;;6206627;28;20045;-76
2022/08/13 09:57:02;;;;;;;3.28;1.95;;;;;;;;;;6208134;28;20060;-76
2022/08/13 10:00:05;;;;;;;2.30;2.10;;;;;;;;;;6207667;28;20037;-76
2022/08/13 10:03:12;;;;;;;2.10;1.90;;;;;;;;;;6217803;28;20525;-75
2022/08/13 10:06:18;;;;;;;2.35;2.00;;;;;;;;;;6209674;28;20210;-76
2022/08/13 10:09:21;;;;;;;4.38;1.98;;;;;;;;;;6208455;28;20615;-75
2022/08/13 10:12:26;;;;;;;2.65;1.98;;;;;;;;;;6210254;28;20095;-75
2022/08/13 10:15:30;;;;;;;1.77;1.67;;;;;;;;;;6206561;28;20136;-76
2022/08/13 10:18:34;;;;;;;3.08;1.73;;;;;;;;;;6208683;28;20046;-77
2022/08/13 10:21:37;;;;;;;2.30;1.92;;;;;;;;;;6209301;28;20045;-76
2022/08/13 10:24:40;;;;;;;2.10;1.95;;;;;;;;;;6209271;28;20054;-76
2022/08/13 10:27:42;;;;;;;2.22;2.03;;;;;;;;;;6205768;28;20169;-76
2022/08/13 10:30:50;;;;;;;1.92;1.80;;;;;;;;;;6221262;28;20045;-76
2022/08/13 10:34:01;;;;;;;1.63;1.52;;;;;;;;;;6188508;28;20045;-76
2022/08/13 10:37:03;;;;;;;1.60;1.50;;;;;;;;;;6200379;28;20061;-76
2022/08/13 10:40:15;;;;;;;2.15;1.58;;;;;;;;;;6203022;28;20072;-76
2022/08/13 10:43:18;;;;;;;1.92;1.65;;;;;;;;;;6203305;28;20041;-77
2022/08/13 10:46:28;;;;;;;3.70;1.65;;;;;;;;;;6202709;28;20046;-76
2022/08/13 10:49:31;;;;;;;2.67;1.70;;;;;;;;;;6202198;28;20217;-75
2022/08/13 10:52:36;;;;;;;1.50;1.40;;;;;;;;;;6203198;28;20053;-77
2022/08/13 10:55:46;;;;;;;1.60;1.50;;;;;;;;;;6200729;28;20128;-76
2022/08/13 10:58:48;;;;;;;1.85;1.60;;;;;;;;;;6203017;28;20048;-77
2022/08/13 11:01:52;;;;;;;1.90;1.77;;;;;;;;;;6204241;28;20489;-76
2022/08/13 11:04:54;;;;;;;3.30;2.10;;;;;;;;;;6209519;28;20077;-75
2022/08/13 11:07:56;;;;;;;2.67;1.75;;;;;;;;;;6203328;28;20163;-76
2022/08/13 11:11:00;;;;;;;1.67;1.58;;;;;;;;;;6203716;28;20046;-76
2022/08/13 11:14:22;;;;;;;1.55;1.45;;;;;;;;;;6208664;28;20736;-78
2022/08/13 11:17:34;;;;;;;2.58;1.67;;;;;;;;;;6208762;28;20420;-78
2022/08/13 11:21:02;;;;;;;2.03;1.63;;;;;;;;;;6213176;28;20508;-77
2022/08/13 11:24:24;;;;;;;1.70;1.60;;;;;;;;;;6208435;28;20650;-77
2022/08/13 11:27:37;;;;;;;1.77;1.40;;;;;;;;;;6211279;28;20045;-77
2022/08/13 11:30:53;;;;;;;2.42;1.45;;;;;;;;;;6209106;28;20046;-77
2022/08/13 11:33:58;;;;;;;2.08;1.63;;;;;;;;;;6207836;28;20053;-76
2022/08/13 11:37:07;;;;;;;3.40;1.70;;;;;;;;;;6206034;28;20046;-76
2022/08/13 11:40:13;;;;;;;3.25;1.83;;;;;;;;;;6206182;28;20049;-77
2022/08/13 11:43:34;;;;;;;2.42;1.80;;;;;;;;;;6205349;28;20509;-76
2022/08/13 11:46:55;;;;;;;1.90;1.40;;;;;;;;;;6207811;28;20045;-76
2022/08/13 11:49:58;;;;;;;3.03;2.20;;;;;;;;;;6208668;28;20056;-76
2022/08/13 11:52:59;;;;;;;1.80;1.70;;;;;;;;;;6208749;28;20087;-77
2022/08/13 11:56:01;;;;;;;1.85;1.75;;;;;;;;;;6204177;28;20058;-76
2022/08/13 11:59:05;;;;;;;1.77;1.67;;;;;;;;;;6221085;28;20038;-75
2022/08/13 12:02:08;;;;;;;2.53;1.60;;;;;;;;;;6202111;28;20046;-75
2022/08/13 12:05:16;;;;;;;1.67;1.58;;;;;;;;;;6209368;28;20045;-77
2022/08/13 12:08:18;;;;;;;;;;;;;;;;;;6220384;28;20038;-77
2022/08/13 12:11:40;;;;;;;1.80;1.60;;;;;;;;;;6204183;28;19986;-78
2022/08/13 12:15:02;;;;;;;1.50;1.40;;;;;;;;;;6205558;28;20057;-79
2022/08/13 12:18:04;;;;;;;5.10;1.70;;;;;;;;;;6208839;28;20397;-76
2022/08/13 12:21:06;;;;;;;1.60;1.50;;;;;;;;;;6210752;28;20708;-76
2022/08/13 12:24:18;;;;;;;1.70;1.60;;;;;;;;;;6206165;28;20070;-77
2022/08/13 12:27:20;;;;;;;2.55;1.40;;;;;;;;;;6223806;28;20053;-76
2022/08/13 12:30:25;;;;;;;2.55;1.60;;;;;;;;;;6206274;28;20061;-77
2022/08/13 12:33:28;;;;;;;1.75;1.45;;;;;;;;;;6209521;28;20073;-76
2022/08/13 12:36:39;;;;;;;1.98;1.60;;;;;;;;;;6208013;28;20038;-75
2022/08/13 12:39:45;;;;;;;1.88;1.77;;;;;;;;;;6213540;28;20050;-76
2022/08/13 12:42:53;;;;;;;2.25;1.70;;;;;;;;;;6211998;28;20068;-76
2022/08/13 12:45:57;;;;;;;1.90;1.73;;;;;;;;;;6210924;28;20038;-78
2022/08/13 12:49:04;;;;;;;1.60;1.50;;;;;;;;;;6212689;28;20050;-78
2022/08/13 12:52:14;;;;;;;2.20;2.00;;;;;;;;;;6216075;28;20164;-77
2022/08/13 12:55:16;;;;;;;2.00;1.90;;;;;;;;;;6155939;28;20038;-78
2022/08/13 12:58:33;;;;;;;4.82;1.92;;;;;;;;;;6218023;28;20497;-78
2022/08/13 13:01:35;;;;;;;2.25;1.85;;;;;;;;;;6211390;28;20568;-78
2022/08/13 13:04:41;;;;;;;2.10;1.90;;;;;;;;;;6211468;28;20041;-78
2022/08/13 13:08:17;;;;;;;1.92;1.83;;;;;;;;;;6200298;28;20049;-78
2022/08/13 13:11:36;;;;;;;2.22;1.80;;;;;;;;;;6210492;28;20076;-78
2022/08/13 13:14:53;;;;;;;1.88;1.73;;;;;;;;;;6208308;28;20085;-78
2022/08/13 13:18:19;;;;;;;1.90;1.80;;;;;;;;;;6209508;28;20065;-78
2022/08/13 13:21:41;;;;;;;2.25;1.88;;;;;;;;;;6210181;28;20062;-77
2022/08/13 13:24:43;;;;;;;2.58;1.83;;;;;;;;;;6209238;28;20453;-77
2022/08/13 13:28:08;;;;;;;1.92;1.83;;;;;;;;;;6209632;28;20375;-79
2022/08/13 13:31:13;;;;;;;1.90;1.80;;;;;;;;;;6209328;28;20102;-79
2022/08/13 13:34:17;;;;;;;1.90;1.80;;;;;;;;;;6231707;28;20050;-77
2022/08/13 13:37:24;;;;;;;3.03;1.88;;;;;;;;;;6218791;28;20077;-78
2022/08/13 13:40:48;;;;;;;1.98;1.83;;;;;;;;;;6218540;28;20244;-77
2022/08/13 13:43:50;;;;;;;2.00;1.90;;;;;;;;;;6212623;28;20050;-78
2022/08/13 13:46:55;;;;;;;4.43;2.95;;;;;;;;;;6215417;28;20139;-78
2022/08/13 13:49:59;;;;;;;2.10;1.90;;;;;;;;;;6216505;28;20053;-77
2022/08/13 13:53:02;;;;;;;4.18;2.20;;;;;;;;;;6216912;28;20038;-78
2022/08/13 13:56:23;;;;;;;1.92;1.70;;;;;;;;;;6214083;28;20808;-77
2022/08/13 13:59:26;;;;;;;2.53;1.77;;;;;;;;;;6208252;28;20046;-77
2022/08/13 14:02:52;;;;;;;1.95;1.73;;;;;;;;;;6209280;28;20046;-77
2022/08/13 14:05:59;;;;;;;1.90;1.80;;;;;;;;;;6208568;28;20034;-77
2022/08/13 14:09:02;;;;;;;1.95;1.85;;;;;;;;;;6209007;28;20132;-77
2022/08/13 14:12:06;;;;;;;2.15;1.95;;;;;;;;;;6209745;28;20046;-77
2022/08/13 14:15:08;;;;;;;2.15;2.00;;;;;;;;;;6208933;28;20128;-76
2022/08/13 14:18:15;;;;;;;2.03;1.92;;;;;;;;;;6209154;28;20510;-77
2022/08/13 14:21:28;;;;;;;2.60;2.08;;;;;;;;;;6201271;28;20126;-77
2022/08/13 14:24:33;;;;;;;1.95;1.85;;;;;;;;;;6207899;28;20037;-76
2022/08/13 14:27:36;;;;;;;2.13;2.00;;;;;;;;;;6207925;28;20085;-77
2022/08/13 14:30:43;;;;;;;3.03;1.90;;;;;;;;;;6204870;28;20434;-77
2022/08/13 14:33:46;;;;;;;3.80;2.05;;;;;;;;;;6223495;28;20404;-77
2022/08/13 14:37:03;;;;;;;2.20;1.85;;;;;;;;;;6221495;28;20048;-78
2022/08/13 14:40:23;;;;;;;3.08;1.90;;;;;;;;;;6211053;28;20691;-80
2022/08/13 14:43:32;;;;;;;2.50;2.30;;;;;;;;;;6213015;28;20699;-81
2022/08/13 14:46:54;;;;;;;4.05;2.60;;;;;;;;;;6212189;28;20225;-83
2022/08/13 14:49:56;;;;;;;;;;;;;;;;;;6216986;28;20070;-79
2022/08/13 14:52:59;;;;;;;2.25;2.05;;;;;;;;;;6215027;28;19928;-78
2022/08/13 14:56:06;;;;;;;2.03;1.92;;;;;;;;;;6205418;28;20052;-80
2022/08/13 14:59:11;;;;;;;2.28;1.88;;;;;;;;;;6223272;28;20741;-79
2022/08/13 15:02:23;;;;;;;2.40;2.20;;;;;;;;;;6212183;28;20106;-80
2022/08/13 15:05:27;;;;;;;2.30;2.10;;;;;;;;;;6228985;28;20064;-80
2022/08/13 15:08:51;;;;;;;2.33;2.03;;;;;;;;;;6209010;28;20048;-80
2022/08/13 15:11:53;;;;;;;2.67;1.90;;;;;;;;;;6212536;28;20062;-79
2022/08/13 15:15:01;;;;;;;2.22;2.08;;;;;;;;;;6212294;28;20501;-80
2022/08/13 15:18:06;;;;;;;2.13;2.03;;;;;;;;;;6213658;28;20452;-80
2022/08/13 15:21:21;;;;;;;3.47;2.10;;;;;;;;;;6206289;28;20126;-78
2022/08/13 15:24:42;;;;;;;;;;;;;;;;;;6212050;28;20046;-80
2022/08/13 15:27:56;;;;;;;2.30;2.10;;;;;;;;;;6212914;28;19947;-79
2022/08/13 15:31:01;;;;;;;2.55;2.05;;;;;;;;;;6209400;28;20100;-78
2022/08/13 15:34:09;;;;;;;2.38;2.20;;;;;;;;;;6210230;28;20045;-78
2022/08/13 15:37:12;;;;;;;2.55;2.03;;;;;;;;;;6203897;28;20396;-78
2022/08/13 15:40:16;;;;;;;2.83;2.10;;;;;;;;;;6211533;28;20046;-77
2022/08/13 15:43:25;;;;;;;2.65;2.13;;;;;;;;;;6210399;28;20139;-77
2022/08/13 15:46:39;;;;;;;2.28;2.08;;;;;;;;;;6208361;28;20046;-78
2022/08/13 15:49:45;;;;;;;2.28;2.08;;;;;;;;;;6210129;28;20172;-78
2022/08/13 15:52:47;;;;;;;2.55;2.35;;;;;;;;;;6209364;28;20080;-76
2022/08/13 15:55:53;;;;;;;2.50;2.30;;;;;;;;;;6209196;28;20050;-78
2022/08/13 15:58:57;;;;;;;2.60;2.30;;;;;;;;;;6227047;28;20073;-78
2022/08/13 16:02:06;;;;;;;3.05;2.60;;;;;;;;;;6214498;28;20620;-78
2022/08/13 16:05:30;;;;;;;2.50;2.40;;;;;;;;;;6215068;28;20050;-77
2022/08/13 16:08:42;;;;;;;2.80;2.40;;;;;;;;;;6213715;28;20088;-79
2022/08/13 16:11:55;;;;;;;2.55;2.35;;;;;;;;;;6216724;28;20056;-78
2022/08/13 16:14:56;;;;;;;2.50;2.30;;;;;;;;;;6217807;28;20178;-79
2022/08/13 16:17:59;;;;;;;2.63;2.42;;;;;;;;;;6218247;28;20108;-79
2022/08/13 16:21:02;;;;;;;4.40;2.72;;;;;;;;;;6219702;28;20588;-79
2022/08/13 16:24:04;;;;;;;2.72;2.53;;;;;;;;;;6225834;28;20683;-77
2022/08/13 16:27:12;;;;;;;2.72;2.47;;;;;;;;;;6219296;28;20038;-79
2022/08/13 16:30:33;;;;;;;2.63;2.42;;;;;;;;;;6215460;28;20045;-78
2022/08/13 16:33:36;;;;;;;2.85;2.65;;;;;;;;;;6216694;28;20105;-78
2022/08/13 16:36:55;;;;;;;2.45;2.25;;;;;;;;;;6214388;28;20057;-80
2022/08/13 16:39:59;;;;;;;3.38;2.80;;;;;;;;;;6209206;28;20034;-78
2022/08/13 16:43:08;;;;;;;3.80;2.83;;;;;;;;;;6229113;28;20046;-78
2022/08/13 16:46:14;;;;;;;3.45;3.15;;;;;;;;;;6218422;28;20053;-77
2022/08/13 16:49:21;;;;;;;3.85;2.88;;;;;;;;;;6215797;28;20045;-78
2022/08/13 16:52:23;;;;;;;3.15;2.90;;;;;;;;;;6216231;28;20559;-79
2022/08/13 16:55:25;;;;;;;3.60;2.75;;;;;;;;;;6227832;28;20536;-77
2022/08/13 16:58:35;;;;;;;4.07;2.67;;;;;;;;;;6216401;28;20084;-80
2022/08/13 17:01:39;;;;;;;3.28;3.03;;;;;;;;;;6213836;28;20046;-80
2022/08/13 17:11:45;;;;;;;3.42;3.08;;;;;;;;;;6215223;28;20054;-78
2022/08/13 17:14:48;;;;;;;4.30;3.33;;;;;;;;;;6216406;28;20042;-78
2022/08/13 17:17:51;;;;;;;3.25;2.95;;;;;;;;;;6217168;28;20042;-79
2022/08/13 17:20:57;;;;;;;3.30;3.00;;;;;;;;;;6217063;28;20068;-77
2022/08/13 17:24:06;;;;;;;3.25;2.80;;;;;;;;;;6214145;28;20060;-78
2022/08/13 17:27:08;;;;;;;3.50;3.20;;;;;;;;;;6197994;28;20076;-78
2022/08/13 17:30:14;;;;;;;3.53;2.80;;;;;;;;;;6211660;28;20062;-78
2022/08/13 17:33:16;;;;;;;4.03;3.08;;;;;;;;;;6226555;28;20156;-78
2022/08/13 17:36:39;;;;;;;3.20;3.00;;;;;;;;;;6210227;28;20049;-78
2022/08/13 17:40:00;;;;;;;3.50;3.20;;;;;;;;;;6224852;28;20046;-77
2022/08/13 17:43:04;;;;;;;3.28;2.97;;;;;;;;;;6212699;28;20054;-76
2022/08/13 17:46:26;;;;;;;5.82;3.30;;;;;;;;;;6211289;28;20056;-77
2022/08/13 17:49:31;;;;;;;3.80;3.50;;;;;;;;;;6225841;28;20050;-76
2022/08/13 17:52:38;;;;;;;5.05;3.05;;;;;;;;;;6225176;28;20092;-80
2022/08/13 17:55:39;;;;;;;3.80;3.50;;;;;;;;;;6215966;28;20109;-77
2022/08/13 17:58:53;;;;;;;4.65;2.83;;;;;;;;;;6214040;28;20106;-78
2022/08/13 18:01:55;;;;;;;;;;;;;;;;;;6212611;28;20053;-79
2022/08/13 18:04:57;;;;;;;3.90;3.20;;;;;;;;;;6215932;28;20008;-78
2022/08/13 18:07:59;;;;;;;3.63;3.33;;;;;;;;;;6228606;28;20438;-79
2022/08/13 18:11:04;;;;;;;3.55;3.20;;;;;;;;;;6215784;28;20050;-80
2022/08/13 18:14:12;;;;;;;3.03;2.72;;;;;;;;;;6227658;28;20034;-79
2022/08/13 18:17:35;;;;;;;3.20;2.90;;;;;;;;;;6213457;28;20045;-78
2022/08/13 18:20:57;;;;;;;3.42;3.13;;;;;;;;;;6208305;28;20164;-77
2022/08/13 18:24:01;;;;;;;3.80;3.25;;;;;;;;;;6208423;28;20037;-77
2022/08/13 18:27:04;;;;;;;3.55;3.08;;;;;;;;;;6224986;28;20042;-78
2022/08/13 18:30:20;;;;;;;3.80;3.15;;;;;;;;;;6208450;28;20066;-78
2022/08/13 18:33:37;;;;;;;3.50;3.20;;;;;;;;;;6211035;28;20049;-79
2022/08/13 18:36:59;;;;;;;4.40;3.85;;;;;;;;;;6223952;28;20050;-79
2022/08/13 18:40:05;;;;;;;3.97;3.58;;;;;;;;;;6212296;28;20620;-77
2022/08/13 18:43:17;;;;;;;4.05;3.65;;;;;;;;;;6211860;28;20527;-77
2022/08/13 18:46:19;;;;;;;4.13;3.60;;;;;;;;;;6209235;28;20065;-76
2022/08/13 18:49:21;;;;;;;3.80;3.50;;;;;;;;;;6212077;28;20108;-80
2022/08/13 18:52:35;;;;;;;3.78;3.47;;;;;;;;;;6207926;28;20078;-80
2022/08/13 18:55:56;;;;;;;4.18;3.83;;;;;;;;;;6208621;28;20067;-81
2022/08/13 18:58:58;;;;;;;4.25;3.40;;;;;;;;;;6228650;28;20117;-80
2022/08/13 19:02:01;;;;;;;4.13;3.50;;;;;;;;;;6227400;28;20054;-80
2022/08/13 19:05:09;;;;;;;3.50;3.20;;;;;;;;;;6229380;28;20048;-82
2022/08/13 19:08:30;;;;;;;3.50;3.20;;;;;;;;;;6214302;28;20056;-81
2022/08/13 19:11:32;;;;;;;4.35;3.83;;;;;;;;;;6230338;28;20165;-81
2022/08/13 19:14:45;;;;;;;4.15;3.35;;;;;;;;;;6226932;28;20046;-81
2022/08/13 19:17:54;;;;;;;4.43;3.70;;;;;;;;;;6214204;28;20045;-81
2022/08/13 19:20:58;;;;;;;4.55;3.67;;;;;;;;;;6230379;28;20041;-81
2022/08/13 19:24:23;;;;;;;4.43;3.45;;;;;;;;;;6225529;28;20050;-80
2022/08/13 19:27:30;;;;;;;3.85;3.55;;;;;;;;;;6212716;28;20113;-80
2022/08/13 19:30:53;;;;;;;5.35;3.80;;;;;;;;;;6213805;28;20067;-82
2022/08/13 19:33:55;;;;;;;6.25;3.67;;;;;;;;;;6216983;28;20053;-81